Time;durP1;ratioP1;P1;durP2;ratioP2;P2;SDS_P1;SDS_P2;PMS_P1;PMS_P2;Temp;Humidity;BMP_temperature;BMP_pressure;BME280_temperature;BME280_humidity;BME280_pressure;Samples;Min_cycle;Max_cycle;Signal;HPM_P1;HPM_P2
2023/05/30 00:00:15;;;;;;;16.77;3.65;;;14.20;99.90;;;;;;4881812;29;20085;-73
2023/05/30 00:02:44;;;;;;;14.57;3.10;;;14.10;99.90;;;;;;4881476;29;20446;-73
2023/05/30 00:05:09;;;;;;;14.98;3.47;;;14.20;99.90;;;;;;4885617;29;20072;-73
2023/05/30 00:07:36;;;;;;;11.82;3.15;;;14.10;99.90;;;;;;4884358;29;20045;-73
2023/05/30 00:10:02;;;;;;;12.80;3.10;;;14.20;99.90;;;;;;4885522;29;20065;-73
2023/05/30 00:12:27;;;;;;;13.00;3.67;;;14.30;99.90;;;;;;4885287;29;20370;-73
2023/05/30 00:14:55;;;;;;;15.20;3.28;;;14.30;99.90;;;;;;4868902;29;20063;-73
2023/05/30 00:17:22;;;;;;;15.13;3.47;;;14.30;99.90;;;;;;4869095;29;20092;-73
2023/05/30 00:19:48;;;;;;;13.43;2.75;;;14.40;99.90;;;;;;4885299;29;20315;-73
2023/05/30 00:22:14;;;;;;;10.30;2.80;;;14.30;99.90;;;;;;4883862;29;20041;-73
2023/05/30 00:24:39;;;;;;;12.02;3.05;;;14.30;99.90;;;;;;4885162;29;20053;-73
2023/05/30 00:27:05;;;;;;;14.65;3.20;;;14.00;99.90;;;;;;4883859;29;20109;-73
2023/05/30 00:29:31;;;;;;;10.07;3.20;;;14.00;99.90;;;;;;4884643;29;20065;-73
2023/05/30 00:31:57;;;;;;;15.88;3.30;;;13.80;99.90;;;;;;4884491;29;20056;-73
2023/05/30 00:34:23;;;;;;;12.00;2.88;;;13.90;99.90;;;;;;4868263;29;20124;-73
2023/05/30 00:36:48;;;;;;;18.80;3.70;;;13.80;99.90;;;;;;4868266;29;20049;-73
2023/05/30 00:39:15;;;;;;;13.50;2.90;;;13.90;99.90;;;;;;4884734;29;20048;-73
2023/05/30 00:41:40;;;;;;;10.02;2.55;;;13.70;99.90;;;;;;4884780;29;20056;-74
2023/05/30 00:44:06;;;;;;;8.93;2.97;;;13.90;99.90;;;;;;4884589;29;20045;-73
2023/05/30 00:46:32;;;;;;;15.80;3.03;;;14.10;99.90;;;;;;4884547;29;20065;-73
2023/05/30 00:48:59;;;;;;;16.13;3.17;;;14.00;99.90;;;;;;4884833;29;20033;-73
2023/05/30 00:51:27;;;;;;;15.25;3.55;;;13.90;99.90;;;;;;4868263;29;20060;-73
2023/05/30 00:53:54;;;;;;;13.95;3.10;;;13.90;99.90;;;;;;4884751;29;20049;-73
2023/05/30 00:56:23;;;;;;;14.35;3.55;;;13.90;99.90;;;;;;4884718;29;20109;-73
2023/05/30 00:58:50;;;;;;;17.50;3.55;;;14.00;99.90;;;;;;4884322;29;20439;-72
2023/05/30 01:01:15;;;;;;;13.90;2.75;;;13.90;99.90;;;;;;4883823;29;20041;-73
2023/05/30 01:03:43;;;;;;;9.85;2.67;;;13.60;99.90;;;;;;4867675;29;20392;-74
2023/05/30 01:06:09;;;;;;;8.85;2.70;;;13.60;99.90;;;;;;4884254;29;20077;-73
2023/05/30 01:08:35;;;;;;;12.30;2.65;;;13.90;99.90;;;;;;4884246;29;20053;-73
2023/05/30 01:11:37;;;;;;;17.02;3.60;;;13.80;99.90;;;;;;4852320;29;20052;-73
2023/05/30 01:14:17;;;;;;;13.57;2.60;;;13.60;99.90;;;;;;4867210;29;20053;-73
2023/05/30 01:17:36;;;;;;;13.50;2.47;;;13.60;99.90;;;;;;4867007;29;20132;-73
2023/05/30 01:20:09;;;;;;;12.95;2.83;;;13.40;99.90;;;;;;4857766;29;20057;-73
2023/05/30 01:23:00;;;;;;;13.70;2.95;;;13.40;99.90;;;;;;4867530;29;20052;-73
2023/05/30 01:25:52;;;;;;;12.48;2.72;;;13.50;99.90;;;;;;4882829;29;20080;-73
2023/05/30 01:28:21;;;;;;;11.73;3.10;;;13.70;99.90;;;;;;4884146;29;20052;-73
2023/05/30 01:30:49;;;;;;;14.95;3.25;;;13.80;99.90;;;;;;4883159;29;20065;-74
2023/05/30 01:33:17;;;;;;;16.92;4.22;;;13.90;99.90;;;;;;4884012;29;20100;-73
2023/05/30 01:35:44;;;;;;;15.35;3.00;;;14.00;99.90;;;;;;4867276;29;20085;-73
2023/05/30 01:38:10;;;;;;;12.23;3.03;;;14.00;99.90;;;;;;4867180;29;20053;-72
2023/05/30 01:40:37;;;;;;;10.50;3.00;;;14.00;99.90;;;;;;4883539;29;20048;-73
2023/05/30 01:43:44;;;;;;;11.68;2.90;;;13.80;99.90;;;;;;4867397;29;20052;-73
2023/05/30 01:46:15;;;;;;;13.85;2.90;;;13.90;99.90;;;;;;4866899;29;20068;-73
2023/05/30 01:49:15;;;;;;;21.33;3.88;;;13.90;99.90;;;;;;4882461;29;20048;-73
2023/05/30 01:51:47;;;;;;;9.25;2.47;;;14.00;99.90;;;;;;4883304;29;20075;-73
2023/05/30 01:54:16;;;;;;;12.98;2.70;;;14.00;99.90;;;;;;4866896;29;20140;-72
2023/05/30 01:56:46;;;;;;;11.38;2.85;;;13.80;99.90;;;;;;4883408;29;20093;-74
2023/05/30 01:59:14;;;;;;;13.48;3.03;;;13.80;99.90;;;;;;4883563;29;20039;-73
2023/05/30 02:01:41;;;;;;;14.15;3.03;;;13.80;99.90;;;;;;4866985;29;20055;-73
2023/05/30 02:04:07;;;;;;;15.55;3.15;;;13.70;99.90;;;;;;4867008;29;20041;-73
2023/05/30 02:06:32;;;;;;;17.25;3.65;;;13.70;99.90;;;;;;4866804;29;20437;-73
2023/05/30 02:08:58;;;;;;;12.70;2.70;;;13.80;99.90;;;;;;4883100;29;20051;-73
2023/05/30 02:11:24;;;;;;;10.38;2.80;;;13.80;99.90;;;;;;4883402;29;20041;-73
2023/05/30 02:13:50;;;;;;;14.20;2.70;;;13.80;99.90;;;;;;4866617;29;20108;-73
2023/05/30 02:16:18;;;;;;;11.02;2.72;;;13.90;99.90;;;;;;4883284;29;20045;-73
2023/05/30 02:18:44;;;;;;;8.18;3.20;;;14.00;99.90;;;;;;4867064;29;20049;-73
2023/05/30 02:21:10;;;;;;;15.25;3.80;;;14.00;99.90;;;;;;4866635;29;20057;-73
2023/05/30 02:23:37;;;;;;;11.10;3.10;;;14.00;99.90;;;;;;4866400;29;20431;-73
2023/05/30 02:26:03;;;;;;;11.65;3.30;;;13.80;99.90;;;;;;4882735;29;20073;-73
2023/05/30 02:28:29;;;;;;;10.30;3.28;;;14.00;99.90;;;;;;4850970;29;20383;-73
2023/05/30 02:30:55;;;;;;;9.80;3.40;;;14.10;99.90;;;;;;4882326;29;20151;-73
2023/05/30 02:33:21;;;;;;;13.55;3.75;;;14.10;99.90;;;;;;4882697;29;20056;-73
2023/05/30 02:35:46;;;;;;;16.90;3.58;;;13.90;99.90;;;;;;4882763;29;20045;-73
2023/05/30 02:38:12;;;;;;;15.60;3.67;;;13.90;99.90;;;;;;4882905;29;20041;-73
2023/05/30 02:40:38;;;;;;;14.52;3.78;;;13.90;99.90;;;;;;4882672;29;20045;-73
2023/05/30 02:43:03;;;;;;;12.57;3.83;;;14.00;99.90;;;;;;4882115;29;20044;-73
2023/05/30 02:45:29;;;;;;;15.25;3.72;;;14.10;99.90;;;;;;4850856;29;20041;-73
2023/05/30 02:47:55;;;;;;;10.70;2.75;;;14.10;99.90;;;;;;4882766;29;20072;-73
2023/05/30 02:50:21;;;;;;;16.42;3.13;;;14.20;99.90;;;;;;4882512;29;20045;-73
2023/05/30 02:52:46;;;;;;;15.63;4.00;;;14.20;99.90;;;;;;4882693;29;20120;-73
2023/05/30 02:55:13;;;;;;;20.33;3.75;;;14.00;99.90;;;;;;4882812;29;20077;-73
2023/05/30 02:57:38;;;;;;;10.65;3.03;;;13.90;99.90;;;;;;4882602;29;20045;-73
2023/05/30 03:00:05;;;;;;;12.90;3.05;;;13.90;99.90;;;;;;4866158;29;20056;-73
2023/05/30 03:02:31;;;;;;;11.50;3.13;;;14.00;99.90;;;;;;4865519;29;20127;-73
2023/05/30 03:04:57;;;;;;;14.13;3.33;;;13.90;99.90;;;;;;4882457;29;20041;-73
2023/05/30 03:07:25;;;;;;;15.52;3.95;;;13.90;99.90;;;;;;4881930;29;20053;-73
2023/05/30 03:09:50;;;;;;;15.80;3.25;;;13.90;99.90;;;;;;4866196;29;20049;-73
2023/05/30 03:12:16;;;;;;;20.73;3.65;;;14.00;99.90;;;;;;4882697;29;20439;-73
2023/05/30 03:14:42;;;;;;;18.13;3.65;;;14.00;99.90;;;;;;4865915;29;20041;-73
2023/05/30 03:17:08;;;;;;;10.65;3.33;;;14.00;99.90;;;;;;4882556;29;20041;-73
2023/05/30 03:19:33;;;;;;;17.52;3.67;;;14.10;99.90;;;;;;4881263;29;20053;-73
2023/05/30 03:22:00;;;;;;;13.07;3.03;;;14.10;99.90;;;;;;4882518;29;20049;-73
2023/05/30 03:24:26;;;;;;;16.45;3.35;;;14.20;99.90;;;;;;4881510;29;20384;-73
2023/05/30 03:26:52;;;;;;;19.98;3.60;;;14.30;99.90;;;;;;4866146;29;20049;-73
2023/05/30 03:29:18;;;;;;;18.75;3.47;;;14.20;99.90;;;;;;4882274;29;20113;-73
2023/05/30 03:31:44;;;;;;;16.10;3.70;;;14.10;99.90;;;;;;4881754;29;20388;-74
2023/05/30 03:34:10;;;;;;;17.08;4.57;;;14.10;99.90;;;;;;4882463;29;20041;-73
2023/05/30 03:36:35;;;;;;;14.15;3.75;;;14.00;99.90;;;;;;4881388;29;20467;-73
2023/05/30 03:39:01;;;;;;;16.88;3.78;;;13.90;99.90;;;;;;4884324;29;20041;-73
2023/05/30 03:41:27;;;;;;;13.77;3.70;;;13.90;99.90;;;;;;4869172;29;20045;-73
2023/05/30 03:43:52;;;;;;;15.13;3.78;;;14.00;99.90;;;;;;4885790;29;20046;-73
2023/05/30 03:46:20;;;;;;;15.27;3.47;;;14.10;99.90;;;;;;4869076;29;20052;-73
2023/05/30 03:48:46;;;;;;;16.08;3.42;;;14.00;99.90;;;;;;4885571;29;20109;-73
2023/05/30 03:51:12;;;;;;;14.18;4.00;;;14.20;99.90;;;;;;4884590;29;20048;-73
2023/05/30 03:53:38;;;;;;;17.15;3.28;;;14.40;99.90;;;;;;4885685;29;20045;-73
2023/05/30 03:56:05;;;;;;;16.17;3.58;;;14.50;99.90;;;;;;4885804;29;20045;-73
2023/05/30 03:58:31;;;;;;;13.02;3.38;;;14.40;99.90;;;;;;4885359;29;20055;-73
2023/05/30 04:00:59;;;;;;;12.38;3.42;;;14.50;99.90;;;;;;4868689;29;20128;-74
2023/05/30 04:03:24;;;;;;;18.15;3.90;;;14.40;99.90;;;;;;4869197;29;20041;-73
2023/05/30 04:05:50;;;;;;;18.17;3.63;;;14.30;99.90;;;;;;4868971;29;20116;-73
2023/05/30 04:08:16;;;;;;;12.73;3.08;;;14.30;99.90;;;;;;4885182;29;20388;-73
2023/05/30 04:10:41;;;;;;;18.55;4.15;;;14.40;99.90;;;;;;4885302;29;20420;-73
2023/05/30 04:13:07;;;;;;;15.85;3.10;;;14.30;99.90;;;;;;4884471;29;20423;-73
2023/05/30 04:15:33;;;;;;;10.50;3.25;;;14.30;99.90;;;;;;4885134;29;20371;-74
2023/05/30 04:18:01;;;;;;;19.33;3.20;;;14.30;99.90;;;;;;4869060;29;20367;-73
2023/05/30 04:20:26;;;;;;;17.45;3.40;;;14.40;99.90;;;;;;4883907;29;20053;-73
2023/05/30 04:22:52;;;;;;;18.90;3.45;;;14.40;99.90;;;;;;4885213;29;20074;-73
2023/05/30 04:25:18;;;;;;;15.82;3.28;;;14.40;99.90;;;;;;4885190;29;20045;-73
2023/05/30 04:27:44;;;;;;;12.52;3.00;;;14.20;99.90;;;;;;4868565;29;20044;-73
2023/05/30 04:30:11;;;;;;;21.73;3.40;;;14.00;99.90;;;;;;4883489;29;20060;-74
2023/05/30 04:32:36;;;;;;;14.95;3.88;;;13.90;99.90;;;;;;4868457;29;20105;-73
2023/05/30 04:35:04;;;;;;;12.70;3.70;;;14.10;99.90;;;;;;4884740;29;20066;-73
2023/05/30 04:37:30;;;;;;;13.00;3.33;;;14.30;99.90;;;;;;4884765;29;20056;-74
2023/05/30 04:39:56;;;;;;;17.42;3.45;;;14.30;99.90;;;;;;4868319;29;20045;-73
2023/05/30 04:42:26;;;;;;;13.13;3.50;;;14.40;99.90;;;;;;4884815;29;20052;-73
2023/05/30 04:44:53;;;;;;;19.55;4.07;;;14.60;99.90;;;;;;4868288;29;20049;-74
2023/05/30 04:47:21;;;;;;;20.73;3.92;;;14.20;99.90;;;;;;4884620;29;20040;-73
2023/05/30 04:49:47;;;;;;;17.80;3.42;;;13.90;99.90;;;;;;4884377;29;20077;-73
2023/05/30 04:52:12;;;;;;;15.35;3.70;;;13.90;99.90;;;;;;4884535;29;20052;-73
2023/05/30 04:54:38;;;;;;;17.95;3.58;;;13.90;99.90;;;;;;4852858;29;20049;-73
2023/05/30 04:57:04;;;;;;;13.35;3.22;;;14.10;99.90;;;;;;4867898;29;20045;-73
2023/05/30 04:59:30;;;;;;;16.08;3.10;;;14.20;99.90;;;;;;4867716;29;20127;-73
2023/05/30 05:01:56;;;;;;;13.07;3.30;;;14.10;99.90;;;;;;4884131;29;20132;-73
2023/05/30 05:04:22;;;;;;;14.55;2.97;;;14.10;99.90;;;;;;4884418;29;20048;-73
2023/05/30 05:06:48;;;;;;;12.38;3.30;;;14.00;99.90;;;;;;4884359;29;20041;-73
2023/05/30 05:09:13;;;;;;;15.45;2.90;;;14.10;99.90;;;;;;4884415;29;20114;-73
2023/05/30 05:11:39;;;;;;;11.05;2.90;;;14.10;99.90;;;;;;4884290;29;20499;-73
2023/05/30 05:14:05;;;;;;;12.20;2.78;;;14.20;99.90;;;;;;4884043;29;20510;-74
2023/05/30 05:16:30;;;;;;;14.27;3.08;;;14.40;99.90;;;;;;4867679;29;20068;-73
2023/05/30 05:18:56;;;;;;;11.63;3.22;;;14.20;99.90;;;;;;4884285;29;20458;-73
2023/05/30 05:21:22;;;;;;;13.40;2.58;;;14.20;99.90;;;;;;4882896;29;20071;-73
2023/05/30 05:23:48;;;;;;;12.95;2.53;;;13.90;99.90;;;;;;4884229;29;20184;-73
2023/05/30 05:26:14;;;;;;;15.02;3.28;;;13.90;99.90;;;;;;4883099;29;20115;-73
2023/05/30 05:28:39;;;;;;;16.20;3.63;;;14.10;99.90;;;;;;4851921;29;20339;-73
2023/05/30 05:31:05;;;;;;;9.07;2.45;;;14.10;99.90;;;;;;4816952;29;20073;-73
2023/05/30 05:33:31;;;;;;;11.52;2.70;;;14.20;99.90;;;;;;4846930;29;20042;-73
2023/05/30 05:35:57;;;;;;;12.68;3.10;;;14.20;99.90;;;;;;4846733;29;20050;-73
2023/05/30 05:38:23;;;;;;;13.88;2.60;;;14.00;99.90;;;;;;4846835;29;20042;-73
2023/05/30 05:40:48;;;;;;;10.80;2.58;;;13.90;99.90;;;;;;4845850;29;20050;-73
2023/05/30 05:43:14;;;;;;;10.63;2.55;;;14.10;99.90;;;;;;4845651;29;20038;-73
2023/05/30 05:45:40;;;;;;;13.57;2.50;;;14.30;99.90;;;;;;4845844;29;20332;-73
2023/05/30 05:48:06;;;;;;;9.02;2.20;;;14.10;99.90;;;;;;4845666;29;20046;-73
2023/05/30 05:50:32;;;;;;;10.20;2.42;;;13.90;99.90;;;;;;4846724;29;20536;-73
2023/05/30 05:52:57;;;;;;;13.18;2.70;;;13.90;99.90;;;;;;4845647;29;20052;-73
2023/05/30 05:55:23;;;;;;;6.70;2.65;;;13.90;99.90;;;;;;4846677;29;20088;-73
2023/05/30 05:57:49;;;;;;;8.88;2.38;;;14.00;99.90;;;;;;4845299;29;20038;-73
2023/05/30 06:00:15;;;;;;;13.32;2.60;;;14.00;99.90;;;;;;4846303;29;20142;-74
2023/05/30 06:02:41;;;;;;;13.95;3.15;;;14.20;99.90;;;;;;4844645;29;20046;-73
2023/05/30 06:05:07;;;;;;;12.88;2.53;;;14.20;99.90;;;;;;4846345;29;20049;-73
2023/05/30 06:07:34;;;;;;;12.30;2.55;;;14.00;99.90;;;;;;4845481;29;20155;-73
2023/05/30 06:09:59;;;;;;;12.32;2.88;;;13.90;99.90;;;;;;4845006;29;20050;-73
2023/05/30 06:12:25;;;;;;;14.23;3.60;;;14.20;99.90;;;;;;4844933;29;20058;-74
2023/05/30 06:14:51;;;;;;;14.95;3.05;;;14.40;99.90;;;;;;4845958;29;20106;-73
2023/05/30 06:17:16;;;;;;;18.55;3.15;;;14.60;99.90;;;;;;4846265;29;20050;-74
2023/05/30 06:19:42;;;;;;;10.25;2.60;;;14.60;99.90;;;;;;4846130;29;20050;-73
2023/05/30 06:22:08;;;;;;;11.50;2.60;;;14.40;99.90;;;;;;4846018;29;20049;-73
2023/05/30 06:24:33;;;;;;;11.35;2.42;;;14.50;99.90;;;;;;4844858;29;20048;-73
2023/05/30 06:27:00;;;;;;;9.55;2.88;;;14.40;99.90;;;;;;4844896;29;20130;-73
2023/05/30 06:29:27;;;;;;;12.63;3.08;;;14.30;99.90;;;;;;4860277;29;20456;-73
2023/05/30 06:31:54;;;;;;;10.05;2.60;;;14.40;99.90;;;;;;4844787;29;20110;-73
2023/05/30 06:34:19;;;;;;;8.32;2.50;;;14.50;99.90;;;;;;4845118;29;20125;-73
2023/05/30 06:36:45;;;;;;;12.20;2.80;;;14.50;99.90;;;;;;4844691;29;20524;-73
2023/05/30 06:39:15;;;;;;;12.07;2.70;;;14.60;99.90;;;;;;4860051;29;20058;-73
2023/05/30 06:41:42;;;;;;;11.18;2.67;;;14.60;99.90;;;;;;4845589;29;20054;-73
2023/05/30 06:44:09;;;;;;;9.10;2.30;;;14.70;99.90;;;;;;4844848;29;20074;-73
2023/05/30 06:46:34;;;;;;;9.93;2.22;;;14.60;99.90;;;;;;4845742;29;20439;-73
2023/05/30 06:49:00;;;;;;;7.38;2.00;;;14.50;99.90;;;;;;4844800;29;20045;-73
2023/05/30 06:51:26;;;;;;;7.03;2.20;;;14.70;99.90;;;;;;4845908;29;20121;-73
2023/05/30 06:53:52;;;;;;;7.47;2.20;;;14.90;99.90;;;;;;4859922;29;20057;-73
2023/05/30 06:56:17;;;;;;;6.57;1.85;;;14.90;99.90;;;;;;4845564;29;20066;-73
2023/05/30 06:58:43;;;;;;;9.18;2.40;;;14.90;99.90;;;;;;4845567;29;20139;-73
2023/05/30 07:01:09;;;;;;;7.55;2.08;;;14.80;99.90;;;;;;4859510;29;20058;-73
2023/05/30 07:03:35;;;;;;;11.45;2.17;;;14.90;99.90;;;;;;4845827;29;20057;-73
2023/05/30 07:06:02;;;;;;;9.23;2.03;;;15.10;99.90;;;;;;4860072;29;20072;-73
2023/05/30 07:08:28;;;;;;;7.53;2.50;;;15.10;99.90;;;;;;4844749;29;20124;-73
2023/05/30 07:10:53;;;;;;;11.27;2.53;;;15.00;99.90;;;;;;4844254;29;20385;-73
2023/05/30 07:13:19;;;;;;;6.00;2.30;;;14.80;99.90;;;;;;4848007;29;20050;-73
2023/05/30 07:15:46;;;;;;;9.88;2.38;;;14.80;99.90;;;;;;4849326;29;20082;-73
2023/05/30 07:18:12;;;;;;;11.05;3.05;;;14.50;99.90;;;;;;4848239;29;20049;-73
2023/05/30 07:20:37;;;;;;;8.38;2.58;;;14.50;99.90;;;;;;4849110;29;20046;-73
2023/05/30 07:23:03;;;;;;;7.95;2.10;;;14.50;99.90;;;;;;4847987;29;20045;-69
2023/05/30 07:25:29;;;;;;;11.10;2.20;;;14.50;99.90;;;;;;4848906;29;20050;-70
2023/05/30 07:27:56;;;;;;;6.28;1.95;;;14.50;99.90;;;;;;4849072;29;20395;-71
2023/05/30 07:30:22;;;;;;;10.13;2.10;;;14.70;99.90;;;;;;4869678;29;20057;-70
2023/05/30 07:32:47;;;;;;;7.72;1.80;;;14.60;99.90;;;;;;4884764;29;20387;-69
2023/05/30 07:35:13;;;;;;;8.20;1.90;;;14.40;99.90;;;;;;4885022;29;20081;-69
2023/05/30 07:37:39;;;;;;;7.78;1.85;;;14.50;99.90;;;;;;4885776;29;20048;-69
2023/05/30 07:40:07;;;;;;;7.82;1.83;;;14.70;99.90;;;;;;4885604;29;20041;-69
2023/05/30 07:42:39;;;;;;;9.40;1.90;;;14.80;99.90;;;;;;4885043;29;20044;-69
2023/05/30 07:45:05;;;;;;;6.97;1.80;;;14.90;99.90;;;;;;4885890;29;20033;-69
2023/05/30 07:47:31;;;;;;;6.22;2.22;;;14.90;99.90;;;;;;4885725;29;20059;-69
2023/05/30 07:49:56;;;;;;;6.60;1.70;;;15.00;99.90;;;;;;4885086;29;20044;-70
2023/05/30 07:52:22;;;;;;;8.82;2.17;;;15.00;99.90;;;;;;4886518;29;20037;-70
2023/05/30 07:54:48;;;;;;;10.43;2.22;;;15.10;99.90;;;;;;4886033;29;20041;-70
2023/05/30 07:57:14;;;;;;;6.03;2.08;;;15.10;99.90;;;;;;4886020;29;20332;-69
2023/05/30 07:59:43;;;;;;;9.18;2.58;;;14.80;99.90;;;;;;4885708;29;20044;-68
2023/05/30 08:02:09;;;;;;;8.43;2.00;;;14.90;99.90;;;;;;4885080;29;20041;-69
2023/05/30 08:04:34;;;;;;;6.38;2.05;;;15.00;99.90;;;;;;4884679;29;20063;-68
2023/05/30 08:07:02;;;;;;;5.05;2.00;;;15.10;99.90;;;;;;4885274;29;20045;-69
2023/05/30 08:09:29;;;;;;;8.40;2.25;;;15.10;99.90;;;;;;4885389;29;20041;-69
2023/05/30 08:11:55;;;;;;;7.57;2.30;;;15.20;99.90;;;;;;4884448;29;20052;-68
2023/05/30 08:14:20;;;;;;;5.05;1.85;;;15.20;99.90;;;;;;4893113;29;20312;-69
2023/05/30 08:16:46;;;;;;;6.40;1.90;;;15.30;99.90;;;;;;4904016;29;20040;-68
2023/05/30 08:19:12;;;;;;;6.70;1.98;;;15.30;99.90;;;;;;4904061;29;20123;-69
2023/05/30 08:21:38;;;;;;;5.82;1.77;;;15.30;99.90;;;;;;4903604;29;20037;-69
2023/05/30 08:24:04;;;;;;;3.47;1.40;;;15.40;99.90;;;;;;4903323;29;20044;-69
2023/05/30 08:26:30;;;;;;;3.25;1.50;;;15.50;99.90;;;;;;4903901;29;20040;-82
2023/05/30 08:28:59;;;;;;;4.07;1.33;;;15.60;99.90;;;;;;4856065;29;20045;-82
2023/05/30 08:31:25;;;;;;;5.43;1.67;;;15.30;99.90;;;;;;4887177;29;20070;-83
2023/05/30 08:33:50;;;;;;;6.40;1.52;;;15.00;99.90;;;;;;4871677;29;20040;-86
2023/05/30 08:36:16;;;;;;;2.97;1.02;;;14.70;99.90;;;;;;4840714;29;20123;-87
2023/05/30 08:38:42;;;;;;;6.43;1.48;;;14.80;99.90;;;;;;4871459;29;20049;-86
2023/05/30 08:41:07;;;;;;;6.22;1.60;;;15.00;99.90;;;;;;4856057;29;20083;-85
2023/05/30 08:43:33;;;;;;;7.53;1.55;;;14.80;99.90;;;;;;4903143;29;20056;-85
2023/05/30 08:46:00;;;;;;;5.80;1.83;;;14.80;99.90;;;;;;4871481;29;20127;-87
2023/05/30 08:48:31;;;;;;;33.50;10.52;;;15.10;99.90;;;;;;4886755;29;20079;-86
2023/05/30 08:50:57;;;;;;;6.57;2.38;;;15.00;99.90;;;;;;4887183;29;20106;-87
2023/05/30 08:53:37;;;;;;;13.23;3.08;;;15.10;99.90;;;;;;4841126;29;20451;-86
2023/05/30 08:56:10;;;;;;;20.00;5.75;;;15.30;99.90;;;;;;4886576;29;20056;-75
2023/05/30 08:58:39;;;;;;;3.63;1.38;;;15.60;99.90;;;;;;4886571;29;20354;-79
2023/05/30 09:01:06;;;;;;;5.38;2.15;;;15.80;99.90;;;;;;4903052;29;20075;-87
2023/05/30 09:03:35;;;;;;;23.10;6.70;;;16.00;99.90;;;;;;4870865;29;20490;-87
2023/05/30 09:06:02;;;;;;;10.07;2.97;;;16.20;99.90;;;;;;4870983;29;20045;-86
2023/05/30 09:08:29;;;;;;;14.50;4.57;;;16.00;99.90;;;;;;4871142;29;20368;-81
2023/05/30 09:10:55;;;;;;;14.63;4.32;;;15.70;99.90;;;;;;4886430;29;20044;-86
2023/05/30 09:13:21;;;;;;;4.35;1.50;;;15.80;99.90;;;;;;4902983;29;20083;-70
2023/05/30 09:15:47;;;;;;;2.58;0.57;;;15.90;99.90;;;;;;4903118;29;20071;-71
2023/05/30 09:18:13;;;;;;;2.95;0.43;;;16.00;99.90;;;;;;4902724;29;20045;-71
2023/05/30 09:20:40;;;;;;;1.95;0.40;;;16.00;99.90;;;;;;4902894;29;20048;-71
2023/05/30 09:23:10;;;;;;;0.70;0.40;;;16.00;99.90;;;;;;4903034;29;20384;-71
2023/05/30 09:25:43;;;;;;;1.27;0.38;;;15.90;99.90;;;;;;4902757;29;20040;-72
2023/05/30 09:28:10;;;;;;;2.22;0.65;;;16.10;99.90;;;;;;4902779;29;20037;-72
2023/05/30 09:30:51;;;;;;;2.42;0.60;;;16.20;99.90;;;;;;4901491;29;20531;-76
2023/05/30 09:33:16;;;;;;;2.20;0.40;;;16.00;99.90;;;;;;4898624;29;20077;-71
2023/05/30 09:35:45;;;;;;;0.80;0.40;;;16.10;99.90;;;;;;4901308;29;20044;-72
2023/05/30 09:38:15;;;;;;;1.17;0.50;;;16.00;99.90;;;;;;4902100;29;20049;-68
